createdAt,value
2022-10-11T00:00:31.451Z,6.63
2022-10-11T00:01:31.471Z,6.62
2022-10-11T00:02:31.407Z,6.62
2022-10-11T00:03:31.377Z,6.63
2022-10-11T00:04:31.385Z,6.66
2022-10-11T00:05:31.381Z,6.64
2022-10-11T00:06:31.356Z,6.63
2022-10-11T00:07:31.335Z,6.64
2022-10-11T00:08:31.338Z,6.62
2022-10-11T00:09:31.321Z,6.62
2022-10-11T00:10:31.315Z,6.64
2022-10-11T00:11:31.315Z,6.64
2022-10-11T00:12:31.297Z,6.62
2022-10-11T00:13:31.271Z,6.66
2022-10-11T00:14:31.269Z,6.69
2022-10-11T00:15:31.250Z,6.74
2022-10-11T00:16:31.280Z,6.75
2022-10-11T00:17:31.230Z,6.74
2022-10-11T00:18:31.231Z,6.69
2022-10-11T00:19:31.212Z,6.64
2022-10-11T00:20:31.218Z,6.63
2022-10-11T00:21:31.211Z,6.57
2022-10-11T00:22:31.184Z,6.56
2022-10-11T00:23:31.162Z,6.57
2022-10-11T00:24:31.179Z,6.57
2022-10-11T00:25:31.142Z,6.59
2022-10-11T00:26:31.143Z,6.59
2022-10-11T00:27:31.162Z,6.62
2022-10-11T00:28:31.244Z,6.62
2022-10-11T00:29:31.107Z,6.60
2022-10-11T00:30:31.105Z,6.57
2022-10-11T00:31:35.536Z,6.59
2022-10-11T00:32:31.104Z,6.59
2022-10-11T00:33:31.058Z,6.57
2022-10-11T00:34:31.084Z,6.59
2022-10-11T00:35:31.035Z,6.57
2022-10-11T00:36:31.038Z,6.57
2022-10-11T00:37:31.049Z,6.57
2022-10-11T00:38:32.049Z,6.57
2022-10-11T00:39:30.994Z,6.57
2022-10-11T00:40:30.999Z,6.59
2022-10-11T00:41:30.970Z,6.60
2022-10-11T00:42:30.981Z,6.52
2022-10-11T00:43:30.974Z,6.56
2022-10-11T00:44:30.958Z,6.57
2022-10-11T00:45:30.930Z,6.56
2022-10-11T00:46:30.939Z,6.54
2022-10-11T00:47:30.919Z,6.48
2022-10-11T00:48:30.942Z,6.42
2022-10-11T00:49:30.885Z,6.42
2022-10-11T00:50:30.893Z,6.44
2022-10-11T00:51:30.947Z,6.41
2022-10-11T00:52:30.875Z,6.38
2022-10-11T00:53:30.903Z,6.35
2022-10-11T00:54:30.848Z,6.35
2022-10-11T00:55:30.824Z,6.30
2022-10-11T00:56:30.827Z,6.22
2022-10-11T00:57:30.821Z,6.19
2022-10-11T00:58:30.804Z,6.16
2022-10-11T00:59:30.804Z,6.12
2022-10-11T01:00:30.789Z,6.12
2022-10-11T01:01:30.783Z,6.19
2022-10-11T01:02:30.763Z,6.22
2022-10-11T01:03:30.743Z,6.27
2022-10-11T01:04:30.763Z,6.30
2022-10-11T01:05:30.831Z,6.31
2022-10-11T01:06:30.718Z,6.33
2022-10-11T01:07:30.698Z,6.30
2022-10-11T01:08:30.713Z,6.30
2022-10-11T01:09:30.699Z,6.31
2022-10-11T01:10:30.678Z,6.30
2022-10-11T01:11:30.655Z,6.31
2022-10-11T01:12:30.657Z,6.22
2022-10-11T01:13:30.643Z,6.19
2022-10-11T01:14:30.643Z,6.24
2022-10-11T01:15:30.628Z,6.19
2022-10-11T01:16:30.611Z,6.22
2022-10-11T01:17:30.598Z,6.27
2022-10-11T01:18:30.594Z,6.22
2022-10-11T01:19:30.566Z,6.28
2022-10-11T01:20:30.600Z,6.33
2022-10-11T01:21:30.546Z,6.33
2022-10-11T01:22:30.547Z,6.35
2022-10-11T01:23:30.527Z,6.33
2022-10-11T01:24:30.532Z,6.30
2022-10-11T01:25:30.560Z,6.24
2022-10-11T01:26:30.513Z,6.12
2022-10-11T01:27:30.482Z,6.07
2022-10-11T01:28:30.535Z,6.01
2022-10-11T01:29:30.469Z,6.01
2022-10-11T01:30:30.466Z,6.01
2022-10-11T01:31:30.457Z,6.05
2022-10-11T01:32:30.447Z,6.08
2022-10-11T01:33:30.428Z,6.08
2022-10-11T01:34:30.424Z,6.09
2022-10-11T01:35:30.400Z,6.09
2022-10-11T01:36:30.430Z,6.09
2022-10-11T01:37:30.381Z,6.08
2022-10-11T01:38:30.393Z,6.08
2022-10-11T01:39:30.373Z,6.04
2022-10-11T01:40:30.365Z,5.98
2022-10-11T01:41:30.366Z,5.94
2022-10-11T01:42:30.349Z,5.89
2022-10-11T01:43:30.320Z,5.82
2022-10-11T01:44:30.318Z,5.75
2022-10-11T01:45:30.301Z,5.69
2022-10-11T01:46:30.288Z,5.68
2022-10-11T01:47:30.314Z,5.66
2022-10-11T01:48:30.312Z,5.59
2022-10-11T01:49:30.256Z,5.65
2022-10-11T01:50:30.255Z,5.69
2022-10-11T01:51:30.236Z,5.71
2022-10-11T01:52:30.259Z,5.75
2022-10-11T01:53:30.213Z,5.80
2022-10-11T01:54:49.811Z,5.83
2022-10-11T01:55:30.199Z,5.86
2022-10-11T01:56:30.200Z,5.86
2022-10-11T01:57:30.209Z,5.84
2022-10-11T01:58:30.169Z,5.83
2022-10-11T01:59:30.145Z,5.83
2022-10-11T02:00:30.149Z,5.84
2022-10-11T02:01:30.179Z,5.86
2022-10-11T02:02:30.128Z,5.86
2022-10-11T02:03:30.122Z,5.83
2022-10-11T02:04:30.124Z,5.79
2022-10-11T02:05:30.083Z,5.75
2022-10-11T02:06:30.084Z,5.73
2022-10-11T02:07:30.073Z,5.73
2022-10-11T02:08:30.090Z,5.76
2022-10-11T02:09:30.038Z,5.76
2022-10-11T02:10:30.043Z,5.83
2022-10-11T02:11:30.027Z,5.83
2022-10-11T02:12:30.019Z,5.76
2022-10-11T02:13:30.026Z,5.82
2022-10-11T02:14:29.999Z,5.82
2022-10-11T02:15:29.982Z,5.79
2022-10-11T02:16:29.978Z,5.73
2022-10-11T02:17:29.953Z,5.72
2022-10-11T02:18:29.956Z,5.73
2022-10-11T02:19:30.081Z,5.75
2022-10-11T02:20:29.945Z,5.79
2022-10-11T02:21:29.911Z,5.80
2022-10-11T02:22:29.924Z,5.79
2022-10-11T02:23:29.889Z,5.72
2022-10-11T02:24:29.923Z,5.66
2022-10-11T02:25:29.882Z,5.66
2022-10-11T02:26:29.876Z,5.66
2022-10-11T02:27:29.854Z,5.69
2022-10-11T02:28:29.923Z,5.65
2022-10-11T02:29:29.881Z,5.66
2022-10-11T02:30:29.836Z,5.62
2022-10-11T02:31:29.807Z,5.65
2022-10-11T02:32:29.812Z,5.66
2022-10-11T02:33:29.797Z,5.71
2022-10-11T02:34:29.790Z,5.72
2022-10-11T02:35:29.784Z,5.72
2022-10-11T02:36:29.782Z,5.68
2022-10-11T02:37:29.751Z,5.62
2022-10-11T02:38:29.756Z,5.57
2022-10-11T02:39:29.722Z,5.62
2022-10-11T02:40:29.748Z,5.61
2022-10-11T02:41:29.714Z,5.64
2022-10-11T02:42:29.712Z,5.65
2022-10-11T02:43:29.696Z,5.64
2022-10-11T02:44:29.692Z,5.66
2022-10-11T02:45:29.683Z,5.66
2022-10-11T02:46:29.662Z,5.64
2022-10-11T02:47:29.645Z,5.64
2022-10-11T02:48:29.643Z,5.66
2022-10-11T02:49:29.732Z,5.69
2022-10-11T02:50:29.616Z,5.75
2022-10-11T02:51:29.616Z,5.79
2022-10-11T02:52:29.607Z,5.72
2022-10-11T02:53:29.577Z,5.69
2022-10-11T02:54:29.577Z,5.66
2022-10-11T02:55:29.554Z,5.62
2022-10-11T02:56:29.572Z,5.59
2022-10-11T02:57:29.536Z,5.56
2022-10-11T02:58:29.543Z,5.54
2022-10-11T02:59:29.513Z,5.56
2022-10-11T03:00:29.511Z,5.62
2022-10-11T03:01:29.588Z,5.66
2022-10-11T03:02:29.491Z,5.66
2022-10-11T03:03:29.475Z,5.65
2022-10-11T03:04:29.470Z,5.69
2022-10-11T03:05:29.445Z,5.69
2022-10-11T03:06:29.448Z,5.71
2022-10-11T03:07:29.453Z,5.72
2022-10-11T03:08:29.426Z,5.73
2022-10-11T03:09:29.408Z,5.72
2022-10-11T03:10:29.411Z,5.69
2022-10-11T03:11:29.385Z,5.66
2022-10-11T03:12:29.413Z,5.66
2022-10-11T03:13:29.366Z,5.59
2022-10-11T03:14:29.372Z,5.56
2022-10-11T03:15:29.344Z,5.48
2022-10-11T03:16:29.344Z,5.44
2022-10-11T03:17:36.467Z,5.48
2022-10-11T03:18:29.332Z,5.51
2022-10-11T03:19:29.306Z,5.54
2022-10-11T03:20:29.303Z,5.56
2022-10-11T03:21:29.278Z,5.54
2022-10-11T03:22:29.287Z,5.53
2022-10-11T03:23:29.276Z,5.53
2022-10-11T03:24:29.262Z,5.50
2022-10-11T03:25:29.243Z,5.47
2022-10-11T03:26:29.251Z,5.48
2022-10-11T03:27:29.222Z,5.44
2022-10-11T03:28:29.296Z,5.47
2022-10-11T03:29:29.189Z,5.44
2022-10-11T03:30:29.199Z,5.44
2022-10-11T03:31:29.189Z,5.47
2022-10-11T03:32:29.162Z,5.46
2022-10-11T03:33:29.224Z,5.46
2022-10-11T03:34:29.141Z,5.51
2022-10-11T03:35:29.146Z,5.56
2022-10-11T03:36:29.141Z,5.51
2022-10-11T03:37:29.127Z,5.51
2022-10-11T03:38:29.099Z,5.47
2022-10-11T03:39:29.130Z,5.46
2022-10-11T03:40:29.093Z,5.41
2022-10-11T03:41:29.092Z,5.43
2022-10-11T03:42:29.120Z,5.35
2022-10-11T03:43:29.065Z,5.30
2022-10-11T03:44:29.080Z,5.28
2022-10-11T03:45:29.048Z,5.30
2022-10-11T03:46:29.023Z,5.35
2022-10-11T03:47:29.043Z,5.41
2022-10-11T03:48:28.994Z,5.47
2022-10-11T03:49:29.042Z,5.48
2022-10-11T03:50:28.978Z,5.41
2022-10-11T03:51:28.986Z,5.33
2022-10-11T03:52:28.958Z,5.29
2022-10-11T03:53:28.955Z,5.33
2022-10-11T03:54:28.941Z,5.38
2022-10-11T03:55:28.957Z,5.43
2022-10-11T03:56:28.908Z,5.44
2022-10-11T03:57:28.955Z,5.39
2022-10-11T03:58:28.899Z,5.41
2022-10-11T03:59:28.897Z,5.41
2022-10-11T04:00:28.887Z,5.41
2022-10-11T04:01:28.922Z,5.44
2022-10-11T04:02:28.848Z,5.44
2022-10-11T04:03:28.847Z,5.47
2022-10-11T04:04:28.830Z,5.48
2022-10-11T04:05:28.856Z,5.50
2022-10-11T04:06:28.802Z,5.48
2022-10-11T04:07:28.806Z,5.48
2022-10-11T04:08:28.783Z,5.50
2022-10-11T04:09:28.802Z,5.50
2022-10-11T04:10:28.761Z,5.50
2022-10-11T04:11:28.809Z,5.46
2022-10-11T04:12:28.735Z,5.46
2022-10-11T04:13:28.744Z,5.38
2022-10-11T04:14:28.729Z,5.35
2022-10-11T04:15:28.736Z,5.30
2022-10-11T04:16:28.740Z,5.21
2022-10-11T04:17:28.698Z,5.15
2022-10-11T04:18:28.673Z,5.08
2022-10-11T04:19:28.683Z,5.05
2022-10-11T04:20:28.656Z,5.02
2022-10-11T04:21:28.664Z,5.00
2022-10-11T04:22:28.679Z,5.00
2022-10-11T04:23:28.639Z,5.07
2022-10-11T04:24:28.636Z,5.00
2022-10-11T04:25:28.621Z,5.10
2022-10-11T04:26:28.598Z,5.10
2022-10-11T04:27:28.605Z,5.10
2022-10-11T04:28:28.673Z,5.07
2022-10-11T04:29:32.309Z,5.10
2022-10-11T04:30:28.573Z,5.07
2022-10-11T04:31:28.552Z,5.07
2022-10-11T04:32:28.532Z,5.07
2022-10-11T04:33:28.530Z,5.08
2022-10-11T04:34:28.538Z,5.04
2022-10-11T04:35:28.518Z,5.04
2022-10-11T04:36:28.498Z,5.04
2022-10-11T04:37:28.495Z,5.07
2022-10-11T04:38:28.458Z,5.02
2022-10-11T04:39:28.463Z,5.02
2022-10-11T04:40:28.471Z,5.00
2022-10-11T04:41:28.448Z,4.99
2022-10-11T04:42:28.427Z,4.99
2022-10-11T04:43:28.422Z,5.00
2022-10-11T04:44:28.398Z,4.99
2022-10-11T04:45:28.398Z,4.97
2022-10-11T04:46:28.403Z,5.00
2022-10-11T04:47:28.382Z,4.99
2022-10-11T04:48:28.354Z,4.97
2022-10-11T04:49:28.369Z,4.96
2022-10-11T04:50:28.332Z,4.96
2022-10-11T04:51:28.338Z,4.99
2022-10-11T04:52:28.340Z,5.00
2022-10-11T04:53:28.312Z,5.02
2022-10-11T04:54:28.292Z,5.02
2022-10-11T04:55:28.300Z,5.00
2022-10-11T04:56:28.266Z,4.92
2022-10-11T04:57:28.271Z,4.92
2022-10-11T04:58:28.278Z,4.96
2022-10-11T04:59:28.254Z,5.02
2022-10-11T05:00:28.226Z,5.04
2022-10-11T05:01:28.232Z,5.02
2022-10-11T05:02:28.325Z,5.05
2022-10-11T05:03:28.206Z,5.07
2022-10-11T05:04:28.211Z,5.05
2022-10-11T05:05:28.186Z,5.04
2022-10-11T05:06:28.166Z,5.05
2022-10-11T05:07:28.166Z,5.02
2022-10-11T05:08:28.144Z,5.00
2022-10-11T05:09:28.161Z,5.05
2022-10-11T05:10:28.145Z,5.05
2022-10-11T05:11:28.124Z,5.02
2022-10-11T05:12:28.097Z,4.97
2022-10-11T05:13:28.105Z,4.94
2022-10-11T05:14:28.076Z,4.96
2022-10-11T05:15:28.106Z,4.90
2022-10-11T05:16:28.064Z,4.87
2022-10-11T05:17:28.075Z,4.90
2022-10-11T05:18:28.035Z,4.89
2022-10-11T05:19:28.040Z,4.89
2022-10-11T05:20:28.018Z,4.90
2022-10-11T05:21:28.041Z,4.92
2022-10-11T05:22:27.999Z,4.89
2022-10-11T05:23:27.996Z,4.86
2022-10-11T05:24:27.977Z,4.80
2022-10-11T05:25:27.980Z,4.78
2022-10-11T05:26:27.984Z,4.75
2022-10-11T05:27:27.962Z,4.78
2022-10-11T05:28:27.975Z,4.84
2022-10-11T05:29:27.933Z,4.84
2022-10-11T05:30:27.925Z,4.87
2022-10-11T05:31:27.912Z,4.90
2022-10-11T05:32:28.266Z,4.86
2022-10-11T05:33:27.892Z,4.82
2022-10-11T05:34:27.865Z,4.82
2022-10-11T05:35:27.892Z,4.78
2022-10-11T05:36:27.869Z,4.80
2022-10-11T05:37:27.875Z,4.84
2022-10-11T05:38:27.825Z,4.80
2022-10-11T05:39:27.841Z,4.75
2022-10-11T05:40:27.892Z,4.73
2022-10-11T05:41:27.804Z,4.67
2022-10-11T05:42:27.807Z,4.60
2022-10-11T05:43:27.807Z,4.59
2022-10-11T05:44:27.795Z,4.52
2022-10-11T05:45:27.765Z,4.52
2022-10-11T05:46:27.738Z,4.53
2022-10-11T05:47:27.748Z,4.53
2022-10-11T05:48:27.748Z,4.53
2022-10-11T05:49:27.724Z,4.50
2022-10-11T05:50:27.711Z,4.45
2022-10-11T05:51:27.705Z,4.44
2022-10-11T05:52:27.681Z,4.41
2022-10-11T05:53:27.683Z,4.45
2022-10-11T05:54:27.682Z,4.49
2022-10-11T05:55:27.665Z,4.49
2022-10-11T05:56:27.634Z,4.49
2022-10-11T05:57:27.637Z,4.45
2022-10-11T05:58:27.615Z,4.45
2022-10-11T05:59:27.639Z,4.52
2022-10-11T06:00:27.593Z,4.55
2022-10-11T06:01:27.681Z,4.52
2022-10-11T06:02:27.573Z,4.53
2022-10-11T06:03:27.572Z,4.59
2022-10-11T06:04:27.551Z,4.56
2022-10-11T06:05:27.587Z,4.55
2022-10-11T06:06:27.533Z,4.56
2022-10-11T06:07:27.538Z,4.58
2022-10-11T06:08:27.518Z,4.60
2022-10-11T06:09:27.512Z,4.62
2022-10-11T06:10:27.532Z,4.67
2022-10-11T06:11:27.490Z,4.68
2022-10-11T06:12:27.469Z,4.70
2022-10-11T06:13:27.467Z,4.70
2022-10-11T06:14:27.446Z,4.74
2022-10-11T06:15:27.451Z,4.74
2022-10-11T06:16:27.448Z,4.84
2022-10-11T06:17:27.425Z,4.89
2022-10-11T06:18:27.403Z,4.84
2022-10-11T06:19:27.405Z,4.80
2022-10-11T06:20:27.446Z,4.78
2022-10-11T06:21:27.428Z,4.82
2022-10-11T06:22:27.365Z,4.87
2022-10-11T06:23:27.367Z,4.92
2022-10-11T06:24:27.359Z,4.93
2022-10-11T06:25:27.341Z,4.92
2022-10-11T06:26:27.318Z,4.92
2022-10-11T06:27:27.341Z,4.93
2022-10-11T06:28:27.373Z,4.96
2022-10-11T06:29:27.304Z,4.94
2022-10-11T06:30:27.380Z,4.93
2022-10-11T06:31:27.286Z,4.92
2022-10-11T06:32:27.277Z,4.93
2022-10-11T06:33:27.257Z,4.97
2022-10-11T06:34:27.238Z,5.02
2022-10-11T06:35:27.242Z,5.02
2022-10-11T06:36:27.220Z,5.05
2022-10-11T06:37:27.215Z,5.11
2022-10-11T06:38:27.220Z,5.11
2022-10-11T06:39:27.192Z,5.17
2022-10-11T06:40:27.250Z,5.25
2022-10-11T06:41:27.189Z,5.26
2022-10-11T06:42:27.149Z,5.28
2022-10-11T06:43:27.179Z,5.30
2022-10-11T06:44:27.131Z,5.30
2022-10-11T06:45:27.127Z,5.30
2022-10-11T06:46:27.112Z,5.30
2022-10-11T06:47:27.116Z,5.28
2022-10-11T06:48:27.084Z,5.29
2022-10-11T06:49:27.108Z,5.33
2022-10-11T06:50:47.538Z,5.36
2022-10-11T06:51:27.073Z,5.39
2022-10-11T06:52:27.046Z,5.47
2022-10-11T06:53:27.052Z,5.50
2022-10-11T06:54:27.053Z,5.51
2022-10-11T06:55:27.028Z,5.57
2022-10-11T06:56:27.002Z,5.57
2022-10-11T06:57:27.005Z,5.62
2022-10-11T06:58:26.999Z,5.61
2022-10-11T06:59:26.990Z,5.61
2022-10-11T07:00:26.979Z,5.62
2022-10-11T07:01:27.076Z,5.69
2022-10-11T07:02:26.938Z,5.73
2022-10-11T07:03:26.943Z,5.79
2022-10-11T07:04:26.916Z,5.86
2022-10-11T07:05:26.942Z,5.90
2022-10-11T07:06:26.897Z,5.94
2022-10-11T07:07:26.896Z,5.99
2022-10-11T07:08:26.877Z,6.02
2022-10-11T07:09:26.874Z,6.07
2022-10-11T07:10:26.852Z,6.07
2022-10-11T07:11:26.873Z,6.07
2022-10-11T07:12:26.838Z,6.09
2022-10-11T07:13:26.838Z,6.11
2022-10-11T07:14:26.811Z,6.14
2022-10-11T07:15:26.814Z,6.17
2022-10-11T07:16:26.817Z,6.24
2022-10-11T07:17:26.794Z,6.36
2022-10-11T07:18:26.766Z,6.49
2022-10-11T07:19:26.777Z,6.60
2022-10-11T07:20:26.744Z,6.67
2022-10-11T07:21:26.748Z,6.79
2022-10-11T07:22:26.747Z,6.87
2022-10-11T07:23:26.753Z,6.93
2022-10-11T07:24:26.705Z,7.00
2022-10-11T07:25:26.707Z,7.07
2022-10-11T07:26:26.706Z,7.14
2022-10-11T07:27:26.693Z,7.18
2022-10-11T07:28:26.860Z,7.24
2022-10-11T07:29:26.665Z,7.35
2022-10-11T07:30:26.642Z,7.42
2022-10-11T07:31:26.687Z,7.43
2022-10-11T07:32:26.617Z,7.48
2022-10-11T07:33:26.654Z,7.54
2022-10-11T07:34:26.602Z,7.60
2022-10-11T07:35:26.634Z,7.66
2022-10-11T07:36:26.743Z,7.63
2022-10-11T07:37:26.585Z,7.69
2022-10-11T07:38:26.562Z,7.73
2022-10-11T07:39:26.586Z,7.76
2022-10-11T07:40:26.544Z,7.80
2022-10-11T07:41:26.538Z,7.83
2022-10-11T07:42:26.515Z,7.87
2022-10-11T07:43:26.518Z,7.91
2022-10-11T07:44:26.520Z,7.94
2022-10-11T07:45:26.504Z,7.98
2022-10-11T07:46:26.475Z,8.05
2022-10-11T07:47:26.475Z,8.09
2022-10-11T07:48:26.464Z,8.10
2022-10-11T07:49:26.440Z,8.15
2022-10-11T07:50:26.461Z,8.19
2022-10-11T07:51:26.421Z,8.19
2022-10-11T07:52:26.422Z,8.23
2022-10-11T07:53:26.397Z,8.28
2022-10-11T07:54:26.401Z,8.28
2022-10-11T07:55:26.409Z,8.36
2022-10-11T07:56:26.385Z,8.41
2022-10-11T07:57:26.365Z,8.42
2022-10-11T07:58:26.359Z,8.46
2022-10-11T07:59:26.332Z,8.42
2022-10-11T08:00:26.335Z,8.48
2022-10-11T08:01:26.473Z,8.52
2022-10-11T08:02:26.315Z,8.51
2022-10-11T08:03:26.291Z,8.53
2022-10-11T08:04:26.293Z,8.61
2022-10-11T08:05:26.269Z,8.63
2022-10-11T08:06:26.299Z,8.61
2022-10-11T08:07:26.250Z,8.70
2022-10-11T08:08:26.350Z,8.73
2022-10-11T08:09:26.230Z,8.81
2022-10-11T08:10:26.234Z,8.78
2022-10-11T08:11:26.206Z,8.76
2022-10-11T08:12:26.245Z,8.79
2022-10-11T08:13:26.227Z,8.82
2022-10-11T08:14:26.198Z,8.87
2022-10-11T08:15:26.164Z,8.91
2022-10-11T08:16:26.162Z,8.99
2022-10-11T08:17:26.168Z,9.02
2022-10-11T08:18:26.150Z,9.06
2022-10-11T08:19:26.129Z,9.08
2022-10-11T08:20:26.129Z,9.13
2022-10-11T08:21:26.098Z,9.14
2022-10-11T08:22:26.104Z,9.14
2022-10-11T08:23:26.118Z,9.14
2022-10-11T08:24:26.079Z,9.19
2022-10-11T08:25:26.056Z,9.22
2022-10-11T08:26:26.064Z,9.29
2022-10-11T08:27:26.040Z,9.31
2022-10-11T08:28:26.116Z,9.34
2022-10-11T08:29:26.011Z,9.37
2022-10-11T08:30:26.045Z,9.41
2022-10-11T08:31:25.994Z,9.43
2022-10-11T08:32:25.998Z,9.46
2022-10-11T08:33:25.984Z,9.51
2022-10-11T08:34:25.993Z,9.58
2022-10-11T08:35:25.953Z,9.61
2022-10-11T08:36:25.953Z,9.61
2022-10-11T08:37:25.930Z,9.58
2022-10-11T08:38:25.934Z,9.61
2022-10-11T08:39:25.959Z,9.66
2022-10-11T08:40:25.911Z,9.69
2022-10-11T08:41:25.887Z,9.69
2022-10-11T08:42:25.899Z,9.74
2022-10-11T08:43:25.870Z,9.74
2022-10-11T08:44:25.921Z,9.79
2022-10-11T08:45:25.865Z,9.82
2022-10-11T08:46:25.865Z,9.83
2022-10-11T08:47:25.823Z,9.86
2022-10-11T08:48:25.879Z,9.89
2022-10-11T08:49:25.800Z,9.97
2022-10-11T08:50:25.882Z,9.98
2022-10-11T08:51:25.787Z,10.05
2022-10-11T08:52:25.785Z,10.13
2022-10-11T08:53:25.757Z,10.23
2022-10-11T08:54:25.764Z,10.26
2022-10-11T08:55:25.736Z,10.34
2022-10-11T08:56:25.766Z,10.38
2022-10-11T08:57:25.718Z,10.38
2022-10-11T08:58:25.717Z,10.40
2022-10-11T08:59:25.695Z,10.41
2022-10-11T09:00:25.700Z,10.37
2022-10-11T09:01:25.730Z,10.34
2022-10-11T09:02:25.683Z,10.37
2022-10-11T09:03:25.648Z,10.42
2022-10-11T09:04:25.654Z,10.42
2022-10-11T09:05:25.640Z,10.37
2022-10-11T09:06:25.638Z,10.42
2022-10-11T09:07:25.636Z,10.48
2022-10-11T09:08:25.614Z,10.51
2022-10-11T09:09:25.589Z,10.53
2022-10-11T09:10:25.593Z,10.56
2022-10-11T09:11:25.569Z,10.59
2022-10-11T09:12:30.877Z,10.64
2022-10-11T09:13:25.547Z,10.64
2022-10-11T09:14:25.555Z,10.71
2022-10-11T09:15:25.533Z,10.69
2022-10-11T09:16:25.528Z,10.69
2022-10-11T09:17:25.503Z,10.68
2022-10-11T09:18:25.528Z,10.71
2022-10-11T09:19:25.483Z,10.74
2022-10-11T09:20:25.488Z,10.86
2022-10-11T09:21:25.461Z,11.04
2022-10-11T09:22:29.631Z,11.12
2022-10-11T09:23:25.470Z,11.08
2022-10-11T09:24:25.448Z,10.99
2022-10-11T09:25:25.419Z,10.99
2022-10-11T09:26:25.423Z,11.02
2022-10-11T09:27:49.856Z,11.05
2022-10-11T09:28:25.447Z,11.08
2022-10-11T09:29:25.398Z,11.05
2022-10-11T09:30:25.385Z,11.00
2022-10-11T09:31:25.362Z,11.00
2022-10-11T09:32:25.356Z,11.04
2022-10-11T09:33:25.331Z,11.05
2022-10-11T09:34:25.367Z,11.04
2022-10-11T09:35:25.308Z,11.12
2022-10-11T09:36:25.311Z,11.17
2022-10-11T09:37:25.286Z,11.26
2022-10-11T09:38:25.293Z,11.30
2022-10-11T09:39:25.268Z,11.36
2022-10-11T09:40:25.289Z,11.44
2022-10-11T09:41:25.247Z,11.43
2022-10-11T09:42:25.248Z,11.47
2022-10-11T09:43:25.227Z,11.48
2022-10-11T09:44:25.243Z,11.47
2022-10-11T09:45:25.246Z,11.45
2022-10-11T09:46:25.203Z,11.50
2022-10-11T09:47:25.183Z,11.51
2022-10-11T09:48:25.200Z,11.55
2022-10-11T09:49:25.398Z,11.59
2022-10-11T09:50:25.164Z,11.63
2022-10-11T09:51:25.173Z,11.60
2022-10-11T09:52:25.139Z,11.65
2022-10-11T09:53:25.120Z,11.65
2022-10-11T09:54:25.119Z,11.70
2022-10-11T09:55:25.099Z,11.72
2022-10-11T09:56:25.117Z,11.78
2022-10-11T09:57:25.073Z,11.83
2022-10-11T09:58:25.079Z,11.88
2022-10-11T09:59:25.062Z,11.91
2022-10-11T10:00:25.053Z,11.95
2022-10-11T10:01:25.109Z,11.99
2022-10-11T10:02:25.053Z,12.06
2022-10-11T10:03:25.017Z,12.12
2022-10-11T10:04:25.019Z,12.21
2022-10-11T10:05:24.992Z,12.32
2022-10-11T10:06:24.987Z,12.31
2022-10-11T10:07:25.003Z,12.35
2022-10-11T10:08:24.968Z,12.36
2022-10-11T10:09:24.957Z,12.32
2022-10-11T10:10:24.960Z,12.31
2022-10-11T10:11:24.940Z,12.32
2022-10-11T10:12:24.927Z,12.35
2022-10-11T10:13:24.924Z,12.39
2022-10-11T10:14:24.900Z,12.40
2022-10-11T10:15:24.882Z,12.35
2022-10-11T10:16:24.881Z,12.29
2022-10-11T10:17:24.859Z,12.28
2022-10-11T10:18:24.889Z,12.28
2022-10-11T10:19:24.997Z,12.29
2022-10-11T10:20:25.908Z,12.37
2022-10-11T10:21:24.818Z,12.45
2022-10-11T10:22:24.818Z,12.49
2022-10-11T10:23:24.791Z,12.55
2022-10-11T10:24:24.818Z,12.61
2022-10-11T10:25:24.770Z,12.70
2022-10-11T10:26:24.773Z,12.76
2022-10-11T10:27:24.748Z,12.83
2022-10-11T10:28:24.854Z,12.90
2022-10-11T10:29:24.761Z,12.94
2022-10-11T10:30:24.749Z,12.98
2022-10-11T10:31:24.711Z,13.03
2022-10-11T10:32:24.710Z,13.03
2022-10-11T10:33:24.681Z,13.12
2022-10-11T10:34:24.687Z,13.16
2022-10-11T10:35:24.682Z,13.19
2022-10-11T10:36:24.670Z,13.28
2022-10-11T10:37:24.644Z,13.27
2022-10-11T10:38:26.679Z,13.33
2022-10-11T10:39:24.619Z,13.27
2022-10-11T10:40:24.661Z,13.12
2022-10-11T10:41:24.597Z,13.11
2022-10-11T10:42:24.598Z,13.16
2022-10-11T10:43:24.578Z,13.31
2022-10-11T10:44:24.579Z,13.57
2022-10-11T10:45:24.552Z,13.75
2022-10-11T10:46:24.584Z,13.87
2022-10-11T10:47:24.536Z,13.72
2022-10-11T10:48:24.547Z,13.62
2022-10-11T10:49:51.934Z,13.54
2022-10-11T10:50:24.517Z,13.37
2022-10-11T10:51:24.513Z,13.38
2022-10-11T10:52:24.491Z,13.38
2022-10-11T10:53:24.470Z,13.35
2022-10-11T10:54:24.476Z,13.50
2022-10-11T10:55:24.456Z,13.71
2022-10-11T10:56:24.475Z,13.89
2022-10-11T10:57:24.423Z,14.11
2022-10-11T10:58:24.431Z,14.22
2022-10-11T10:59:24.408Z,14.28
2022-10-11T11:00:24.410Z,14.43
2022-10-11T11:01:24.466Z,14.47
2022-10-11T11:02:41.266Z,14.51
2022-10-11T11:03:24.366Z,14.40
2022-10-11T11:04:24.377Z,14.58
2022-10-11T11:05:24.344Z,14.72
2022-10-11T11:06:24.349Z,14.86
2022-10-11T11:07:24.356Z,15.03
2022-10-11T11:08:24.326Z,15.15
2022-10-11T11:09:24.294Z,14.97
2022-10-11T11:10:24.302Z,14.88
2022-10-11T11:11:24.277Z,14.69
2022-10-11T11:12:24.281Z,14.53
2022-10-11T11:13:24.271Z,14.41
2022-10-11T11:14:24.253Z,14.50
2022-10-11T11:15:31.271Z,14.47
2022-10-11T11:16:24.243Z,14.23
2022-10-11T11:17:24.209Z,14.07
2022-10-11T11:18:24.247Z,14.05
2022-10-11T11:19:24.198Z,13.97
2022-10-11T11:20:24.189Z,13.96
2022-10-11T11:21:24.170Z,13.92
2022-10-11T11:22:24.172Z,13.89
2022-10-11T11:23:24.145Z,13.83
2022-10-11T11:24:24.176Z,13.78
2022-10-11T11:25:24.133Z,13.79
2022-10-11T11:26:24.128Z,13.77
2022-10-11T11:27:24.100Z,13.79
2022-10-11T11:28:24.164Z,13.79
2022-10-11T11:29:24.107Z,13.81
2022-10-11T11:30:24.084Z,13.86
2022-10-11T11:31:24.057Z,13.90
2022-10-11T11:32:24.060Z,13.92
2022-10-11T11:33:24.034Z,13.90
2022-10-11T11:34:24.041Z,13.97
2022-10-11T11:35:24.038Z,14.03
2022-10-11T11:36:24.017Z,14.10
2022-10-11T11:37:23.997Z,14.18
2022-10-11T11:38:29.256Z,14.45
2022-10-11T11:39:23.978Z,14.77
2022-10-11T11:40:24.020Z,15.02
2022-10-11T11:41:23.953Z,15.28
2022-10-11T11:42:23.960Z,15.35
2022-10-11T11:43:23.927Z,15.27
2022-10-11T11:44:27.481Z,15.10
2022-10-11T11:45:23.915Z,15.04
2022-10-11T11:46:23.936Z,15.24
2022-10-11T11:47:23.885Z,15.40
2022-10-11T11:48:23.893Z,15.42
2022-10-11T11:49:23.863Z,15.46
2022-10-11T11:50:23.869Z,15.67
2022-10-11T11:51:26.502Z,15.86
2022-10-11T11:52:23.850Z,16.13
2022-10-11T11:53:23.822Z,16.36
2022-10-11T11:54:23.824Z,16.35
2022-10-11T11:55:23.798Z,16.32
2022-10-11T11:56:23.810Z,16.39
2022-10-11T11:57:23.801Z,16.31
2022-10-11T11:58:23.781Z,16.39
2022-10-11T11:59:23.755Z,16.50
2022-10-11T12:00:23.760Z,16.54
2022-10-11T12:01:27.601Z,16.58
2022-10-11T12:02:23.858Z,16.54
2022-10-11T12:03:23.714Z,16.50
2022-10-11T12:04:23.707Z,16.46
2022-10-11T12:05:23.707Z,16.41
2022-10-11T12:06:23.682Z,16.39
2022-10-11T12:07:23.689Z,16.33
2022-10-11T12:08:23.684Z,16.35
2022-10-11T12:09:23.665Z,16.35
2022-10-11T12:10:23.642Z,16.24
2022-10-11T12:11:23.639Z,16.17
2022-10-11T12:12:23.614Z,16.12
2022-10-11T12:13:26.304Z,15.97
2022-10-11T12:14:23.595Z,15.83
2022-10-11T12:15:23.594Z,15.84
2022-10-11T12:16:23.571Z,15.82
2022-10-11T12:17:23.581Z,15.76
2022-10-11T12:18:23.554Z,15.68
2022-10-11T12:19:23.581Z,15.57
2022-10-11T12:20:23.562Z,15.49
2022-10-11T12:21:23.537Z,15.33
2022-10-11T12:22:23.514Z,15.14
2022-10-11T12:23:23.507Z,15.04
2022-10-11T12:24:23.515Z,14.94
2022-10-11T12:25:23.486Z,14.79
2022-10-11T12:26:23.461Z,14.70
2022-10-11T12:27:23.467Z,14.62
2022-10-11T12:28:23.536Z,14.51
2022-10-11T12:29:28.178Z,14.44
2022-10-11T12:30:23.448Z,14.32
2022-10-11T12:31:23.435Z,14.29
2022-10-11T12:32:23.399Z,14.20
2022-10-11T12:33:23.402Z,14.11
2022-10-11T12:34:23.379Z,14.04
2022-10-11T12:35:23.407Z,14.00
2022-10-11T12:36:23.355Z,14.03
2022-10-11T12:37:23.394Z,13.97
2022-10-11T12:38:23.337Z,13.93
2022-10-11T12:39:23.336Z,13.89
2022-10-11T12:40:23.312Z,13.86
2022-10-11T12:41:23.336Z,13.83
2022-10-11T12:42:23.293Z,13.75
2022-10-11T12:43:23.307Z,13.71
2022-10-11T12:44:23.288Z,13.70
2022-10-11T12:45:23.276Z,13.63
2022-10-11T12:46:23.273Z,13.56
2022-10-11T12:47:23.258Z,13.53
2022-10-11T12:48:23.235Z,13.53
2022-10-11T12:49:23.228Z,13.50
2022-10-11T12:50:23.206Z,13.46
2022-10-11T12:51:23.206Z,13.42
2022-10-11T12:52:23.204Z,13.44
2022-10-11T12:53:23.184Z,13.44
2022-10-11T12:54:29.069Z,13.42
2022-10-11T12:55:23.168Z,13.42
2022-10-11T12:56:23.142Z,13.41
2022-10-11T12:57:23.177Z,13.41
2022-10-11T12:58:23.115Z,13.41
2022-10-11T12:59:23.237Z,13.37
2022-10-11T13:00:23.098Z,13.37
2022-10-11T13:01:23.201Z,13.37
2022-10-11T13:02:23.085Z,13.38
2022-10-11T13:03:23.099Z,13.37
2022-10-11T13:04:23.057Z,13.38
2022-10-11T13:05:23.058Z,13.39
2022-10-11T13:06:23.033Z,13.38
2022-10-11T13:07:23.038Z,13.33
2022-10-11T13:08:23.037Z,13.28
2022-10-11T13:09:23.015Z,13.22